createdAt,value
2022-08-09T00:01:19.436Z,18.72
2022-08-09T00:04:03.619Z,18.62
2022-08-09T00:06:40.807Z,18.62
2022-08-09T00:09:12.756Z,18.61
2022-08-09T00:12:03.601Z,18.52
2022-08-09T00:14:38.334Z,18.45
2022-08-09T00:17:07.159Z,18.37
2022-08-09T00:19:35.215Z,18.38
2022-08-09T00:22:04.562Z,18.38
2022-08-09T00:24:32.575Z,18.38
2022-08-09T00:27:01.559Z,18.33
2022-08-09T00:30:23.396Z,18.32
2022-08-09T00:32:27.079Z,18.49
2022-08-09T00:34:56.383Z,18.31
2022-08-09T00:37:24.271Z,18.24
2022-08-09T00:40:12.992Z,18.22
2022-08-09T00:44:25.098Z,18.21
2022-08-09T00:45:27.983Z,18.17
2022-08-09T00:47:55.674Z,18.13
2022-08-09T00:50:24.377Z,18.12
2022-08-09T00:52:52.868Z,18.15
2022-08-09T00:56:03.268Z,18.16
2022-08-09T00:58:10.146Z,18.12
2022-08-09T01:00:43.983Z,18.12
2022-08-09T01:03:20.315Z,18.14
2022-08-09T01:06:13.771Z,18.10
2022-08-09T01:08:54.473Z,18.08
2022-08-09T01:11:35.414Z,18.06
2022-08-09T01:14:08.299Z,17.93
2022-08-09T01:16:47.331Z,17.91
2022-08-09T01:19:56.980Z,17.92
2022-08-09T01:22:56.856Z,17.98
2022-08-09T01:25:59.739Z,18.00
2022-08-09T01:28:27.927Z,17.92
2022-08-09T01:30:59.176Z,17.96
2022-08-09T01:33:29.872Z,17.89
2022-08-09T01:36:04.653Z,18.00
2022-08-09T01:38:36.798Z,17.90
2022-08-09T01:41:15.597Z,17.99
2022-08-09T01:43:51.625Z,18.08
2022-08-09T01:46:32.453Z,17.97
2022-08-09T01:49:10.849Z,17.99
2022-08-09T01:51:58.582Z,17.97
2022-08-09T01:54:47.399Z,18.01
2022-08-09T01:57:20.889Z,17.96
2022-08-09T01:59:52.671Z,18.01
2022-08-09T02:02:31.606Z,17.98
2022-08-09T02:05:15.813Z,18.08
2022-08-09T02:08:35.775Z,17.99
2022-08-09T02:10:51.294Z,18.01
2022-08-09T02:13:25.928Z,17.97
2022-08-09T02:16:05.788Z,17.96
2022-08-09T02:18:36.008Z,17.96
2022-08-09T02:21:11.805Z,18.00
2022-08-09T02:23:56.581Z,18.03
2022-08-09T02:26:28.174Z,18.00
2022-08-09T02:29:01.499Z,18.06
2022-08-09T02:31:36.223Z,18.10
2022-08-09T02:34:26.027Z,18.12
2022-08-09T02:37:12.259Z,18.16
2022-08-09T02:39:49.951Z,18.13
2022-08-09T02:42:27.961Z,18.18
2022-08-09T02:45:02.118Z,18.19
2022-08-09T02:47:33.928Z,18.16
2022-08-09T02:50:35.314Z,18.13
2022-08-09T02:53:37.300Z,18.15
2022-08-09T02:56:07.557Z,18.24
2022-08-09T02:58:37.880Z,18.27
2022-08-09T03:01:10.961Z,18.24
2022-08-09T03:04:17.873Z,18.26
2022-08-09T03:06:29.502Z,18.36
2022-08-09T03:08:57.894Z,18.31
2022-08-09T03:12:06.749Z,18.36
2022-08-09T03:14:15.895Z,18.43
2022-08-09T03:16:48.616Z,18.46
2022-08-09T03:19:52.161Z,18.50
2022-08-09T03:22:12.408Z,18.51
2022-08-09T03:25:06.211Z,18.53
2022-08-09T03:27:45.882Z,18.62
2022-08-09T03:30:30.056Z,18.59
2022-08-09T03:33:12.711Z,18.65
2022-08-09T03:36:13.484Z,18.78
2022-08-09T03:38:42.168Z,18.79
2022-08-09T03:41:16.354Z,18.84
2022-08-09T03:44:03.099Z,18.84
2022-08-09T03:46:33.288Z,18.96
2022-08-09T03:49:04.307Z,18.95
2022-08-09T03:51:56.153Z,19.01
2022-08-09T03:54:31.120Z,19.06
2022-08-09T03:57:04.588Z,19.05
2022-08-09T03:59:54.705Z,19.14
2022-08-09T04:02:29.387Z,19.27
2022-08-09T04:05:00.648Z,19.34
2022-08-09T04:07:47.789Z,19.35
2022-08-09T04:10:29.658Z,19.47
2022-08-09T04:13:11.343Z,19.51
2022-08-09T04:16:18.722Z,19.54
2022-08-09T04:18:28.781Z,19.51
2022-08-09T04:20:56.453Z,19.55
2022-08-09T04:23:24.951Z,19.56
2022-08-09T04:25:55.120Z,19.56
2022-08-09T04:28:32.957Z,19.56
2022-08-09T04:31:09.535Z,19.56
2022-08-09T04:33:52.234Z,19.55
2022-08-09T04:36:24.563Z,19.49
2022-08-09T04:38:54.317Z,19.43
2022-08-09T04:41:24.409Z,19.44
2022-08-09T04:44:07.325Z,19.38
2022-08-09T04:46:58.518Z,19.48
2022-08-09T04:49:52.515Z,19.46
2022-08-09T04:52:30.711Z,19.50
2022-08-09T04:55:04.704Z,19.44
2022-08-09T04:57:59.011Z,19.38
2022-08-09T05:00:23.018Z,19.44
2022-08-09T05:02:52.851Z,19.45
2022-08-09T05:05:31.768Z,19.47
2022-08-09T05:08:09.619Z,19.60
2022-08-09T05:10:41.794Z,19.68
2022-08-09T05:13:10.910Z,19.77
2022-08-09T05:15:47.628Z,19.76
2022-08-09T05:18:39.767Z,19.81
2022-08-09T05:21:13.378Z,19.87
2022-08-09T05:24:00.085Z,19.91
2022-08-09T05:26:37.210Z,19.98
2022-08-09T05:29:21.483Z,19.91
2022-08-09T05:31:56.309Z,20.32
2022-08-09T05:34:30.689Z,20.27
2022-08-09T05:37:06.728Z,20.30
2022-08-09T05:39:43.797Z,20.41
2022-08-09T05:42:17.707Z,20.39
2022-08-09T05:44:52.206Z,20.52
2022-08-09T05:47:23.061Z,20.64
2022-08-09T05:50:25.632Z,20.82
2022-08-09T05:52:44.651Z,20.93
2022-08-09T05:55:23.981Z,21.09
2022-08-09T05:57:57.512Z,21.24
2022-08-09T06:00:28.867Z,21.35
2022-08-09T06:03:03.908Z,21.52
2022-08-09T06:05:54.814Z,21.69
2022-08-09T06:08:27.252Z,21.98
2022-08-09T06:10:58.041Z,22.24
2022-08-09T06:13:27.061Z,22.44
2022-08-09T06:15:56.707Z,22.38
2022-08-09T06:18:25.649Z,22.19
2022-08-09T06:20:57.058Z,21.96
2022-08-09T06:23:57.387Z,21.80
2022-08-09T06:26:20.794Z,21.65
2022-08-09T06:28:59.880Z,21.58
2022-08-09T06:31:31.246Z,21.57
2022-08-09T06:34:07.555Z,21.53
2022-08-09T06:36:37.701Z,21.56
2022-08-09T06:39:12.657Z,21.63
2022-08-09T06:42:08.886Z,21.65
2022-08-09T06:44:32.266Z,21.66
2022-08-09T06:47:01.038Z,21.62
2022-08-09T06:50:11.516Z,21.63
2022-08-09T06:52:18.129Z,21.77
2022-08-09T06:54:45.958Z,21.73
2022-08-09T06:57:14.190Z,21.82
2022-08-09T07:00:56.084Z,21.89
2022-08-09T07:02:32.453Z,21.85
2022-08-09T07:05:02.381Z,21.79
2022-08-09T07:07:59.859Z,21.73
2022-08-09T07:10:29.988Z,21.64
2022-08-09T07:13:18.496Z,21.57
2022-08-09T07:15:54.014Z,21.45
2022-08-09T07:18:36.349Z,21.39
2022-08-09T07:21:07.855Z,21.36
2022-08-09T07:23:36.333Z,21.31
2022-08-09T07:26:14.264Z,21.38
2022-08-09T07:29:08.243Z,21.39
2022-08-09T07:31:31.426Z,21.51
2022-08-09T07:34:08.404Z,21.68
2022-08-09T07:36:49.731Z,21.69
2022-08-09T07:39:20.377Z,21.73
2022-08-09T07:42:06.551Z,21.80
2022-08-09T07:44:53.317Z,21.96
2022-08-09T07:47:23.173Z,22.03
2022-08-09T07:50:04.716Z,22.11
2022-08-09T07:52:33.872Z,22.15
2022-08-09T07:55:09.123Z,22.14
2022-08-09T07:57:47.230Z,22.28
2022-08-09T08:00:20.162Z,22.45
2022-08-09T08:03:04.585Z,22.75
2022-08-09T08:05:53.708Z,23.07
2022-08-09T08:09:02.747Z,23.49
2022-08-09T08:12:09.186Z,23.85
2022-08-09T08:13:57.442Z,24.12
2022-08-09T08:16:29.764Z,24.29
2022-08-09T08:19:03.301Z,24.60
2022-08-09T08:21:32.231Z,24.71
2022-08-09T08:24:01.426Z,24.92
2022-08-09T08:26:55.066Z,25.02
2022-08-09T08:29:28.594Z,25.06
2022-08-09T08:32:06.897Z,25.06
2022-08-09T08:34:36.539Z,25.13
2022-08-09T08:37:05.348Z,25.17
2022-08-09T08:39:40.016Z,25.27
2022-08-09T08:42:12.052Z,25.56
2022-08-09T08:44:41.514Z,25.88
2022-08-09T08:47:12.266Z,26.21
2022-08-09T08:49:47.757Z,26.34
2022-08-09T08:52:57.510Z,26.18
2022-08-09T08:55:19.096Z,25.88
2022-08-09T08:57:56.611Z,25.56
2022-08-09T09:00:30.077Z,25.45
2022-08-09T09:03:08.153Z,25.36
2022-08-09T09:06:00.348Z,25.26
2022-08-09T09:08:32.058Z,25.42
2022-08-09T09:11:06.162Z,25.56
2022-08-09T09:13:55.275Z,25.76
2022-08-09T09:16:33.785Z,25.93
2022-08-09T09:19:40.112Z,25.88
2022-08-09T09:22:15.729Z,25.88
2022-08-09T09:24:49.283Z,26.15
2022-08-09T09:28:06.869Z,26.53
2022-08-09T09:30:38.639Z,27.43
2022-08-09T09:33:15.830Z,28.24
2022-08-09T09:36:19.678Z,29.49
2022-08-09T09:38:54.362Z,30.77
2022-08-09T09:41:32.662Z,31.68
2022-08-09T09:44:11.670Z,32.08
2022-08-09T09:46:51.679Z,31.66
2022-08-09T09:49:31.887Z,30.87
2022-08-09T09:52:35.585Z,29.80
2022-08-09T09:55:24.173Z,28.98
2022-08-09T09:58:18.585Z,28.30
2022-08-09T10:00:55.182Z,27.79
2022-08-09T10:03:40.348Z,27.71
2022-08-09T10:06:12.418Z,28.34
2022-08-09T10:08:43.276Z,30.12
2022-08-09T10:11:59.282Z,31.13
2022-08-09T10:14:32.886Z,31.33
2022-08-09T10:17:38.814Z,31.21
2022-08-09T10:20:00.333Z,30.45
2022-08-09T10:22:36.652Z,30.55
2022-08-09T10:25:11.074Z,30.44
2022-08-09T10:27:45.530Z,30.14
2022-08-09T10:34:04.326Z,29.76
2022-08-09T10:36:09.413Z,29.53
2022-08-09T10:38:56.665Z,29.72
2022-08-09T10:41:27.981Z,29.36
2022-08-09T10:44:01.183Z,29.10
2022-08-09T10:48:12.762Z,29.51
2022-08-09T10:50:10.244Z,29.56
2022-08-09T10:52:53.578Z,29.10
2022-08-09T10:55:35.632Z,29.12
2022-08-09T10:58:32.429Z,29.11
2022-08-09T11:03:05.646Z,28.56
2022-08-09T11:04:19.845Z,28.38
2022-08-09T11:07:01.158Z,28.12
2022-08-09T11:09:38.368Z,28.78
2022-08-09T11:12:29.531Z,31.32
2022-08-09T11:15:01.787Z,34.13
2022-08-09T11:17:31.612Z,34.07
2022-08-09T11:20:22.930Z,32.86
2022-08-09T11:22:56.840Z,31.12
2022-08-09T11:25:44.742Z,29.79
2022-08-09T11:28:33.746Z,29.09
2022-08-09T11:31:33.772Z,28.16
2022-08-09T11:34:10.622Z,27.87
2022-08-09T11:36:44.241Z,29.27
2022-08-09T11:39:12.344Z,29.43
2022-08-09T11:41:40.835Z,29.29
2022-08-09T11:44:09.063Z,30.16
2022-08-09T11:46:57.886Z,30.31
2022-08-09T11:50:53.735Z,30.56
2022-08-09T11:53:15.278Z,30.27
2022-08-09T11:55:52.638Z,29.33
2022-08-09T11:58:30.182Z,28.65
2022-08-09T12:01:08.865Z,29.07
2022-08-09T12:03:57.103Z,29.75
2022-08-09T12:06:32.521Z,29.74
2022-08-09T12:09:04.295Z,30.12
2022-08-09T12:11:44.722Z,28.81
2022-08-09T12:14:40.826Z,28.06
2022-08-09T12:17:28.051Z,28.37
2022-08-09T12:20:22.796Z,31.57
2022-08-09T12:22:59.758Z,34.14
2022-08-09T12:25:35.947Z,35.96
2022-08-09T12:29:10.641Z,35.02
2022-08-09T12:31:01.167Z,35.36
2022-08-09T12:33:51.124Z,34.86
2022-08-09T12:36:31.882Z,33.67
2022-08-09T12:39:04.307Z,32.58
2022-08-09T12:41:39.185Z,31.98
2022-08-09T12:44:10.258Z,31.39
2022-08-09T12:46:49.109Z,30.57
2022-08-09T12:49:20.981Z,29.96
2022-08-09T12:52:02.263Z,29.63
2022-08-09T12:56:10.798Z,29.40
2022-08-09T12:57:40.868Z,28.75
2022-08-09T13:00:35.518Z,28.68
2022-08-09T13:03:05.221Z,28.34
2022-08-09T13:05:52.409Z,28.18
2022-08-09T13:08:40.342Z,28.03
2022-08-09T13:11:23.034Z,27.77
2022-08-09T13:14:42.916Z,27.49
2022-08-09T13:16:52.495Z,27.09
2022-08-09T13:20:10.277Z,26.79
2022-08-09T13:22:35.712Z,26.36
2022-08-09T13:25:14.245Z,26.25
2022-08-09T13:27:54.792Z,26.27
2022-08-09T13:30:48.926Z,26.21
2022-08-09T13:33:23.547Z,26.19
2022-08-09T13:36:41.604Z,25.95
2022-08-09T13:38:54.988Z,25.67
2022-08-09T13:41:58.670Z,25.48
2022-08-09T13:44:16.389Z,25.25
2022-08-09T13:47:27.063Z,25.10
2022-08-09T13:49:37.959Z,24.96
2022-08-09T13:52:23.581Z,24.76
2022-08-09T13:55:00.419Z,24.65
2022-08-09T13:57:40.460Z,24.44
2022-08-09T14:00:17.822Z,24.23
2022-08-09T14:03:02.337Z,24.12
2022-08-09T14:05:58.142Z,23.96
2022-08-09T14:08:24.158Z,23.85
2022-08-09T14:10:54.759Z,23.82
2022-08-09T14:13:28.341Z,23.73
2022-08-09T14:16:18.170Z,23.69
2022-08-09T14:18:50.241Z,23.64
2022-08-09T14:21:21.027Z,23.49
2022-08-09T14:23:57.048Z,23.47
2022-08-09T14:26:30.603Z,23.43
2022-08-09T14:29:07.838Z,23.48
2022-08-09T14:31:53.885Z,23.48
2022-08-09T14:34:31.134Z,23.48
2022-08-09T14:37:06.572Z,23.53
2022-08-09T14:39:47.255Z,23.53
2022-08-09T14:42:31.384Z,23.49
2022-08-09T14:46:39.854Z,23.57
2022-08-09T14:47:59.774Z,23.58
2022-08-09T14:50:30.553Z,23.60
2022-08-09T14:53:00.019Z,23.56
2022-08-09T14:55:29.127Z,23.55
2022-08-09T14:58:00.927Z,23.50
2022-08-09T15:00:33.301Z,23.44
2022-08-09T15:03:03.859Z,23.38
2022-08-09T15:05:32.421Z,23.40
2022-08-09T15:08:10.257Z,23.32
2022-08-09T15:10:38.697Z,23.27
2022-08-09T15:13:08.663Z,23.27
2022-08-09T15:15:39.351Z,23.23
2022-08-09T15:18:12.433Z,23.21
2022-08-09T15:21:58.256Z,23.20
2022-08-09T15:24:01.831Z,23.07
2022-08-09T15:26:31.781Z,23.03
2022-08-09T15:29:04.979Z,23.08
2022-08-09T15:31:41.816Z,23.03
2022-08-09T15:34:33.037Z,23.05
2022-08-09T15:37:04.087Z,23.10
2022-08-09T15:39:53.247Z,23.08
2022-08-09T15:42:21.771Z,22.99
2022-08-09T15:44:50.414Z,22.88
2022-08-09T15:47:22.691Z,22.80
2022-08-09T15:50:04.948Z,22.66
2022-08-09T15:52:37.889Z,22.60
2022-08-09T15:55:20.536Z,22.49
2022-08-09T15:57:51.352Z,22.36
2022-08-09T16:00:25.101Z,22.29
2022-08-09T16:02:56.288Z,22.24
2022-08-09T16:05:47.145Z,22.18
2022-08-09T16:08:29.877Z,22.20
2022-08-09T16:11:05.056Z,22.19
2022-08-09T16:14:05.457Z,22.19
2022-08-09T16:16:26.118Z,22.20
2022-08-09T16:18:56.378Z,22.16
2022-08-09T16:21:24.956Z,22.17
2022-08-09T16:23:58.793Z,22.18
2022-08-09T16:26:35.407Z,22.27
2022-08-09T16:29:11.789Z,22.16
2022-08-09T16:32:18.802Z,22.15
2022-08-09T16:34:54.821Z,22.11
2022-08-09T16:37:54.756Z,22.09
2022-08-09T16:40:10.428Z,22.04
2022-08-09T16:42:45.093Z,22.03
2022-08-09T16:45:20.073Z,21.93
2022-08-09T16:48:42.402Z,21.89
2022-08-09T16:50:39.071Z,21.87
2022-08-09T16:53:06.805Z,21.87
2022-08-09T16:55:59.842Z,21.79
2022-08-09T16:58:25.243Z,21.79
2022-08-09T17:00:53.555Z,21.71
2022-08-09T17:03:23.812Z,21.67
2022-08-09T17:06:08.686Z,21.62
2022-08-09T17:09:03.041Z,21.65
2022-08-09T17:11:41.044Z,21.58
2022-08-09T17:14:26.650Z,21.49
2022-08-09T17:16:59.898Z,21.31
2022-08-09T17:20:06.004Z,21.24
2022-08-09T17:22:31.205Z,21.13
2022-08-09T17:25:03.240Z,21.02
2022-08-09T17:27:33.810Z,20.96
2022-08-09T17:30:04.867Z,20.87
2022-08-09T17:32:38.202Z,20.87
2022-08-09T17:35:12.134Z,20.76
2022-08-09T17:38:11.523Z,20.68
2022-08-09T17:40:36.559Z,20.60
2022-08-09T17:43:32.589Z,20.54
2022-08-09T17:46:04.091Z,20.48
2022-08-09T17:48:38.901Z,20.44
2022-08-09T17:51:19.252Z,20.42
2022-08-09T17:53:53.553Z,20.36
2022-08-09T17:56:35.607Z,20.34
2022-08-09T17:59:09.610Z,20.29
2022-08-09T18:02:06.507Z,20.24
2022-08-09T18:04:32.114Z,20.21
2022-08-09T18:07:04.601Z,20.17
2022-08-09T18:09:40.956Z,20.10
2022-08-09T18:12:17.836Z,20.08
2022-08-09T18:14:54.955Z,20.03
2022-08-09T18:18:03.866Z,20.00
2022-08-09T18:21:00.288Z,19.93
2022-08-09T18:23:05.137Z,19.93
2022-08-09T18:25:50.826Z,19.87
2022-08-09T18:30:39.811Z,19.91
2022-08-09T18:31:15.541Z,19.88
2022-08-09T18:33:53.831Z,19.81
2022-08-09T18:36:25.279Z,19.80
2022-08-09T18:38:57.539Z,19.75
2022-08-09T18:41:29.151Z,19.78
2022-08-09T18:44:03.508Z,19.75
2022-08-09T18:46:49.262Z,19.73
2022-08-09T18:49:20.502Z,19.78
2022-08-09T18:51:55.151Z,19.69
2022-08-09T18:54:28.620Z,19.67
2022-08-09T18:57:06.349Z,19.68
2022-08-09T18:59:51.242Z,19.62
2022-08-09T19:02:23.940Z,19.64
2022-08-09T19:05:04.187Z,19.56
2022-08-09T19:07:59.338Z,19.57
2022-08-09T19:10:37.882Z,19.53
2022-08-09T19:13:19.960Z,19.62
2022-08-09T19:15:52.512Z,19.56
2022-08-09T19:18:33.079Z,19.50
2022-08-09T19:21:05.812Z,19.52
2022-08-09T19:24:37.578Z,19.49
2022-08-09T19:26:31.872Z,19.50
2022-08-09T19:29:03.316Z,19.52
2022-08-09T19:31:45.785Z,19.47
2022-08-09T19:34:22.089Z,19.48
2022-08-09T19:36:53.510Z,19.42
2022-08-09T19:39:29.197Z,19.42
2022-08-09T19:42:15.374Z,19.43
2022-08-09T19:44:50.496Z,19.34
2022-08-09T19:47:23.682Z,19.43
2022-08-09T19:50:07.383Z,19.36
2022-08-09T19:52:49.669Z,19.34
2022-08-09T19:55:25.737Z,19.30
2022-08-09T19:57:58.762Z,19.33
2022-08-09T20:00:26.426Z,19.31
2022-08-09T20:04:07.181Z,19.26
2022-08-09T20:05:46.322Z,19.21
2022-08-09T20:08:25.153Z,19.28
2022-08-09T20:11:04.831Z,19.23
2022-08-09T20:13:37.252Z,19.27
2022-08-09T20:16:33.584Z,19.19
2022-08-09T20:19:42.129Z,19.17
2022-08-09T20:21:54.802Z,19.13
2022-08-09T20:24:29.554Z,19.11
2022-08-09T20:27:03.017Z,19.08
2022-08-09T20:29:39.755Z,19.09
2022-08-09T20:32:29.291Z,19.10
2022-08-09T20:34:57.968Z,19.06
2022-08-09T20:37:25.767Z,19.07
2022-08-09T20:40:19.047Z,19.04
2022-08-09T20:43:00.298Z,19.06
2022-08-09T20:46:00.947Z,19.01
2022-08-09T20:48:30.648Z,19.05
2022-08-09T20:51:00.753Z,19.00
2022-08-09T20:53:49.105Z,18.98
2022-08-09T20:56:19.977Z,18.95
2022-08-09T20:58:49.849Z,19.00
2022-08-09T21:01:34.154Z,19.01
2022-08-09T21:04:07.897Z,18.93
2022-08-09T21:06:55.615Z,18.93
2022-08-09T21:09:41.673Z,18.97
2022-08-09T21:14:48.292Z,18.88
2022-08-09T21:18:23.529Z,18.95
2022-08-09T21:20:22.165Z,18.96
2022-08-09T21:22:54.050Z,18.91
2022-08-09T21:25:44.085Z,18.91
2022-08-09T21:28:33.740Z,18.89
2022-08-09T21:31:17.241Z,18.89
2022-08-09T21:33:52.345Z,18.86
2022-08-09T21:36:28.132Z,18.84
2022-08-09T21:39:00.023Z,18.79
2022-08-09T21:42:04.826Z,18.77
2022-08-09T21:44:34.342Z,18.79
2022-08-09T21:47:08.910Z,18.81
2022-08-09T21:49:40.560Z,18.79
2022-08-09T21:52:16.437Z,18.78
2022-08-09T21:54:50.921Z,18.74
2022-08-09T21:57:38.611Z,18.70
2022-08-09T22:00:32.396Z,18.68
2022-08-09T22:03:04.876Z,18.57
2022-08-09T22:05:41.815Z,18.64
2022-08-09T22:08:18.579Z,18.55
2022-08-09T22:11:05.201Z,18.56
2022-08-09T22:13:37.264Z,18.65
2022-08-09T22:16:07.874Z,18.65
2022-08-09T22:18:38.637Z,18.58
2022-08-09T22:21:21.911Z,18.60
2022-08-09T22:24:01.560Z,18.69
2022-08-09T22:26:34.743Z,18.62
2022-08-09T22:29:10.010Z,18.60
2022-08-09T22:31:50.458Z,18.74
2022-08-09T22:34:29.339Z,18.69
2022-08-09T22:36:58.079Z,18.75
2022-08-09T22:39:57.337Z,18.69
2022-08-09T22:42:21.309Z,18.63
2022-08-09T22:45:00.007Z,18.61
2022-08-09T22:48:15.882Z,18.59
2022-08-09T22:50:32.943Z,18.60
2022-08-09T22:53:03.558Z,18.55
2022-08-09T22:56:06.651Z,18.55
2022-08-09T22:58:32.524Z,18.49
2022-08-09T23:01:05.861Z,18.53
2022-08-09T23:04:03.936Z,18.53
2022-08-09T23:06:32.604Z,18.54
2022-08-09T23:09:14.390Z,18.48
2022-08-09T23:11:42.049Z,18.54
2022-08-09T23:14:17.310Z,18.54
2022-08-09T23:16:45.646Z,18.58
2022-08-09T23:19:13.262Z,18.55
2022-08-09T23:21:41.120Z,18.54
2022-08-09T23:24:09.409Z,18.59
2022-08-09T23:26:38.865Z,18.62
2022-08-09T23:29:08.075Z,18.56
2022-08-09T23:31:36.121Z,18.54
2022-08-09T23:34:04.316Z,18.51
2022-08-09T23:36:33.691Z,18.43
2022-08-09T23:39:02.391Z,18.33
2022-08-09T23:41:33.748Z,18.31
2022-08-09T23:44:02.644Z,18.37
2022-08-09T23:46:31.260Z,18.32
2022-08-09T23:49:00.146Z,18.46
2022-08-09T23:51:28.102Z,18.32
2022-08-09T23:54:03.089Z,18.33
2022-08-09T23:56:52.422Z,18.32
2022-08-09T23:59:21.445Z,18.37
